createdAt,value
2022-10-23T00:01:44.185Z,8.00
2022-10-23T00:04:21.640Z,8.00
2022-10-23T00:06:50.459Z,8.10
2022-10-23T00:09:22.318Z,8.10
2022-10-23T00:11:52.766Z,8.20
2022-10-23T00:14:24.012Z,8.20
2022-10-23T00:16:52.095Z,8.20
2022-10-23T00:19:20.008Z,8.10
2022-10-23T00:21:47.823Z,8.00
2022-10-23T00:24:15.805Z,7.90
2022-10-23T00:26:44.045Z,7.80
2022-10-23T00:29:12.364Z,7.80
2022-10-23T00:31:40.314Z,7.80
2022-10-23T00:34:09.007Z,7.70
2022-10-23T00:36:37.806Z,7.70
2022-10-23T00:39:06.080Z,7.70
2022-10-23T00:41:34.132Z,7.70
2022-10-23T00:44:06.647Z,7.60
2022-10-23T00:46:36.967Z,7.60
2022-10-23T00:49:06.140Z,7.60
2022-10-23T00:51:45.108Z,7.50
2022-10-23T00:54:24.994Z,7.40
2022-10-23T00:56:59.195Z,7.40
2022-10-23T00:59:28.356Z,7.40
2022-10-23T01:01:57.452Z,7.40
2022-10-23T01:04:28.399Z,7.30
2022-10-23T01:07:14.314Z,7.30
2022-10-23T01:10:31.979Z,7.30
2022-10-23T01:13:22.013Z,7.30
2022-10-23T01:16:11.625Z,7.20
2022-10-23T01:19:00.338Z,7.20
2022-10-23T01:21:54.216Z,7.20
2022-10-23T01:25:00.618Z,7.20
2022-10-23T01:27:36.973Z,7.20
2022-10-23T01:30:12.663Z,7.20
2022-10-23T01:33:02.290Z,7.20
2022-10-23T01:35:47.014Z,7.20
2022-10-23T01:38:38.270Z,7.20
2022-10-23T01:41:23.269Z,7.20
2022-10-23T01:44:14.437Z,7.20
2022-10-23T01:46:45.617Z,7.20
2022-10-23T01:49:14.887Z,7.10
2022-10-23T01:51:48.756Z,7.10
2022-10-23T01:54:20.002Z,7.10
2022-10-23T01:56:49.995Z,7.10
2022-10-23T01:59:47.058Z,7.10
2022-10-23T02:02:17.396Z,7.10
2022-10-23T02:05:39.201Z,7.10
2022-10-23T02:08:26.132Z,7.10
2022-10-23T02:11:26.936Z,7.10
2022-10-23T02:15:03.591Z,7.10
2022-10-23T02:18:10.536Z,7.00
2022-10-23T02:20:48.280Z,7.00
2022-10-23T02:23:38.128Z,6.90
2022-10-23T02:26:19.287Z,6.90
2022-10-23T02:28:55.634Z,6.80
2022-10-23T02:31:24.250Z,6.80
2022-10-23T02:33:52.441Z,6.70
2022-10-23T02:36:20.678Z,6.60
2022-10-23T02:38:50.606Z,6.60
2022-10-23T02:41:39.018Z,6.50
2022-10-23T02:44:45.970Z,6.60
2022-10-23T02:47:47.029Z,6.60
2022-10-23T02:50:36.385Z,6.60
2022-10-23T02:53:35.688Z,6.60
2022-10-23T02:56:28.054Z,6.70
2022-10-23T02:59:14.512Z,6.70
2022-10-23T03:02:15.184Z,6.80
2022-10-23T03:04:43.960Z,6.80
2022-10-23T03:07:15.085Z,6.80
2022-10-23T03:09:43.557Z,6.90
2022-10-23T03:12:11.750Z,6.90
2022-10-23T03:14:38.535Z,7.00
2022-10-23T03:17:09.409Z,7.00
2022-10-23T03:19:37.612Z,7.00
2022-10-23T03:22:05.602Z,7.00
2022-10-23T03:24:32.533Z,7.00
2022-10-23T03:27:01.001Z,7.00
2022-10-23T03:29:32.680Z,6.90
2022-10-23T03:32:00.964Z,6.90
2022-10-23T03:34:28.560Z,6.90
2022-10-23T03:36:56.789Z,6.90
2022-10-23T03:39:23.599Z,6.90
2022-10-23T03:41:51.681Z,7.00
2022-10-23T03:44:18.838Z,7.00
2022-10-23T03:46:46.980Z,7.00
2022-10-23T03:49:14.647Z,7.00
2022-10-23T03:51:51.859Z,7.00
2022-10-23T03:54:26.601Z,7.00
2022-10-23T03:56:57.526Z,7.00
2022-10-23T03:59:27.833Z,7.00
2022-10-23T04:01:56.031Z,7.10
2022-10-23T04:04:25.777Z,7.10
2022-10-23T04:06:54.959Z,7.10
2022-10-23T04:09:22.550Z,7.10
2022-10-23T04:11:50.538Z,7.10
2022-10-23T04:14:17.765Z,7.10
2022-10-23T04:16:45.979Z,7.10
2022-10-23T04:19:13.629Z,7.10
2022-10-23T04:21:43.419Z,7.10
2022-10-23T04:24:12.688Z,7.10
2022-10-23T04:26:40.852Z,7.20
2022-10-23T04:29:11.839Z,7.20
2022-10-23T04:31:39.579Z,7.20
2022-10-23T04:34:07.627Z,7.10
2022-10-23T04:36:36.615Z,7.10
2022-10-23T04:39:12.001Z,7.10
2022-10-23T04:41:39.634Z,7.10
2022-10-23T04:44:08.318Z,7.00
2022-10-23T04:46:38.649Z,7.00
2022-10-23T04:49:06.813Z,7.00
2022-10-23T04:52:05.640Z,7.00
2022-10-23T04:54:51.059Z,6.90
2022-10-23T04:57:41.721Z,6.90
2022-10-23T05:00:13.489Z,6.90
2022-10-23T05:02:53.138Z,6.90
2022-10-23T05:05:23.996Z,6.90
2022-10-23T05:08:04.666Z,6.80
2022-10-23T05:10:48.829Z,6.80
2022-10-23T05:13:19.915Z,6.80
2022-10-23T05:15:52.094Z,6.80
2022-10-23T05:18:25.438Z,6.70
2022-10-23T05:21:05.237Z,6.80
2022-10-23T05:23:35.194Z,6.70
2022-10-23T05:26:05.121Z,6.80
2022-10-23T05:28:33.634Z,6.80
2022-10-23T05:31:04.017Z,6.80
2022-10-23T05:33:32.340Z,6.70
2022-10-23T05:36:02.126Z,6.70
2022-10-23T05:38:33.438Z,6.70
2022-10-23T05:41:06.459Z,6.70
2022-10-23T05:43:33.606Z,6.70
2022-10-23T05:46:11.912Z,6.70
2022-10-23T05:49:08.855Z,6.70
2022-10-23T05:52:11.656Z,6.70
2022-10-23T05:54:52.725Z,6.60
2022-10-23T05:57:44.107Z,6.60
2022-10-23T06:00:14.345Z,6.60
2022-10-23T06:02:42.547Z,6.70
2022-10-23T06:05:26.836Z,6.80
2022-10-23T06:08:14.966Z,6.80
2022-10-23T06:10:42.685Z,6.90
2022-10-23T06:13:12.848Z,6.90
2022-10-23T06:15:40.643Z,6.90
2022-10-23T06:18:27.492Z,6.90
2022-10-23T06:21:07.232Z,7.00
2022-10-23T06:23:37.542Z,7.00
2022-10-23T06:26:18.283Z,7.10
2022-10-23T06:28:58.747Z,7.10
2022-10-23T06:31:28.304Z,7.10
2022-10-23T06:33:59.395Z,7.10
2022-10-23T06:36:27.860Z,7.10
2022-10-23T06:39:05.009Z,7.10
2022-10-23T06:41:50.788Z,7.10
2022-10-23T06:44:38.699Z,7.20
2022-10-23T06:47:10.905Z,7.30
2022-10-23T06:49:58.846Z,7.40
2022-10-23T06:52:45.846Z,7.50
2022-10-23T06:55:15.878Z,7.70
2022-10-23T06:57:44.728Z,7.80
2022-10-23T07:00:13.816Z,7.90
2022-10-23T07:02:49.671Z,7.90
2022-10-23T07:05:18.517Z,8.00
2022-10-23T07:07:45.690Z,8.10
2022-10-23T07:10:19.379Z,8.20
2022-10-23T07:12:52.798Z,8.30
2022-10-23T07:15:39.606Z,8.40
2022-10-23T07:18:14.483Z,8.50
2022-10-23T07:21:11.777Z,8.70
2022-10-23T07:23:40.797Z,8.90
2022-10-23T07:26:15.236Z,9.20
2022-10-23T07:28:44.917Z,9.50
2022-10-23T07:31:14.545Z,9.70
2022-10-23T07:34:00.840Z,9.90
2022-10-23T07:36:28.895Z,10.00
2022-10-23T07:38:55.797Z,10.00
2022-10-23T07:41:24.573Z,10.30
2022-10-23T07:43:52.331Z,10.80
2022-10-23T07:46:20.556Z,11.30
2022-10-23T07:48:49.063Z,11.90
2022-10-23T07:51:16.982Z,12.40
2022-10-23T07:53:52.423Z,12.70
2022-10-23T07:56:51.710Z,13.20
2022-10-23T07:59:27.543Z,13.50
2022-10-23T08:01:56.731Z,13.90
2022-10-23T08:04:40.716Z,14.40
2022-10-23T08:07:28.772Z,14.70
2022-10-23T08:09:58.715Z,14.90
2022-10-23T08:12:26.828Z,15.20
2022-10-23T08:14:56.262Z,15.60
2022-10-23T08:17:28.309Z,15.70
2022-10-23T08:20:07.112Z,16.20
2022-10-23T08:22:40.205Z,16.40
2022-10-23T08:25:09.509Z,16.60
2022-10-23T08:27:37.267Z,17.10
2022-10-23T08:30:05.963Z,17.70
2022-10-23T08:32:33.990Z,18.30
2022-10-23T08:35:04.194Z,18.70
2022-10-23T08:37:32.754Z,18.90
2022-10-23T08:40:00.888Z,19.50
2022-10-23T08:42:59.204Z,20.00
2022-10-23T08:45:46.483Z,20.70
2022-10-23T08:48:41.748Z,21.00
2022-10-23T08:51:44.547Z,21.10
2022-10-23T08:54:19.636Z,21.20
2022-10-23T08:56:58.415Z,21.40
2022-10-23T08:59:33.302Z,21.60
2022-10-23T09:02:07.765Z,22.20
2022-10-23T09:04:36.452Z,22.50
2022-10-23T09:07:29.533Z,22.60
2022-10-23T09:10:33.267Z,23.00
2022-10-23T09:13:33.676Z,22.70
2022-10-23T09:16:26.708Z,22.20
2022-10-23T09:18:57.516Z,21.40
2022-10-23T09:21:35.606Z,20.80
2022-10-23T09:24:17.826Z,20.30
2022-10-23T09:26:50.358Z,20.00
2022-10-23T09:29:31.848Z,19.50
2022-10-23T09:32:01.867Z,19.20
2022-10-23T09:34:32.096Z,19.00
2022-10-23T09:37:23.193Z,18.90
2022-10-23T09:40:25.055Z,18.80
2022-10-23T09:43:18.473Z,18.70
2022-10-23T09:46:03.937Z,18.70
2022-10-23T09:48:36.810Z,18.70
2022-10-23T09:51:21.907Z,18.60
2022-10-23T09:54:00.404Z,18.70
2022-10-23T09:56:38.487Z,18.70
2022-10-23T09:59:14.415Z,18.70
2022-10-23T10:01:57.815Z,18.80
2022-10-23T10:05:38.531Z,19.00
2022-10-23T10:08:28.517Z,18.90
2022-10-23T10:12:07.746Z,19.00
2022-10-23T10:14:44.398Z,18.90
2022-10-23T10:17:49.560Z,19.10
2022-10-23T10:20:40.478Z,19.30
2022-10-23T10:23:32.769Z,19.30
2022-10-23T10:26:23.371Z,19.40
2022-10-23T10:29:18.856Z,19.70
2022-10-23T10:32:13.548Z,19.80
2022-10-23T10:35:18.362Z,19.90
2022-10-23T10:38:18.511Z,20.20
2022-10-23T10:41:32.439Z,20.50
2022-10-23T10:44:09.538Z,20.80
2022-10-23T10:47:18.472Z,20.90
2022-10-23T10:50:25.048Z,21.20
2022-10-23T10:53:40.887Z,21.60
2022-10-23T10:56:14.436Z,21.80
2022-10-23T10:59:11.015Z,22.00
2022-10-23T11:02:00.261Z,22.30
2022-10-23T11:04:51.162Z,22.40
2022-10-23T11:07:27.217Z,22.70
2022-10-23T11:10:03.960Z,22.90
2022-10-23T11:12:32.916Z,23.00
2022-10-23T11:15:00.013Z,23.10
2022-10-23T11:17:39.998Z,23.30
2022-10-23T11:20:41.791Z,23.60
2022-10-23T11:23:53.888Z,23.40
2022-10-23T11:26:46.788Z,23.60
2022-10-23T11:30:05.352Z,24.20
2022-10-23T11:32:51.871Z,24.20
2022-10-23T11:35:47.229Z,24.60
2022-10-23T11:38:48.477Z,25.00
2022-10-23T11:41:33.565Z,25.40
2022-10-23T11:44:42.654Z,25.40
2022-10-23T11:47:40.655Z,25.60
2022-10-23T11:50:08.848Z,25.50
2022-10-23T11:53:12.839Z,26.00
2022-10-23T11:55:57.746Z,26.10
2022-10-23T11:58:42.535Z,26.30
2022-10-23T12:01:45.917Z,26.30
2022-10-23T12:04:23.921Z,26.50
2022-10-23T12:07:00.490Z,26.30
2022-10-23T12:09:49.606Z,26.10
2022-10-23T12:12:29.270Z,25.70
2022-10-23T12:15:20.947Z,25.70
2022-10-23T12:17:49.503Z,25.60
2022-10-23T12:20:36.677Z,25.70
2022-10-23T12:23:31.471Z,26.20
2022-10-23T12:26:27.601Z,27.60
2022-10-23T12:28:59.353Z,29.70
2022-10-23T12:32:02.740Z,30.60
2022-10-23T12:34:34.738Z,30.40
2022-10-23T12:37:23.746Z,30.20
2022-10-23T12:39:55.405Z,30.40
2022-10-23T12:42:29.832Z,30.70
2022-10-23T12:45:04.594Z,30.70
2022-10-23T12:47:34.497Z,30.30
2022-10-23T12:50:03.169Z,29.70
2022-10-23T12:52:35.838Z,29.30
2022-10-23T12:55:17.541Z,29.50
2022-10-23T12:57:47.182Z,29.50
2022-10-23T13:00:18.430Z,29.90
2022-10-23T13:03:09.397Z,30.00
2022-10-23T13:05:44.292Z,29.90
2022-10-23T13:08:17.971Z,29.50
2022-10-23T13:11:13.163Z,29.10
2022-10-23T13:13:46.529Z,29.00
2022-10-23T13:16:29.617Z,28.50
2022-10-23T13:19:03.309Z,28.10
2022-10-23T13:21:36.969Z,27.60
2022-10-23T13:24:23.072Z,27.20
2022-10-23T13:26:54.316Z,26.80
2022-10-23T13:29:32.791Z,26.60
2022-10-23T13:32:35.196Z,26.30
2022-10-23T13:35:23.965Z,26.00
2022-10-23T13:38:12.384Z,25.70
2022-10-23T13:40:47.420Z,25.70
2022-10-23T13:43:27.114Z,26.00
2022-10-23T13:45:59.667Z,26.00
2022-10-23T13:48:28.042Z,26.40
2022-10-23T13:51:07.311Z,26.50
2022-10-23T13:53:36.331Z,26.30
2022-10-23T14:00:31.000Z,26.80
2022-10-23T14:02:58.884Z,25.70
2022-10-23T14:05:33.165Z,25.40
2022-10-23T14:08:03.921Z,25.00
2022-10-23T14:10:33.789Z,24.60
2022-10-23T14:13:04.465Z,24.10
2022-10-23T14:15:36.065Z,23.70
2022-10-23T14:18:08.334Z,23.30
2022-10-23T14:20:39.118Z,22.90
2022-10-23T14:23:06.848Z,22.70
2022-10-23T14:25:37.198Z,22.60
2022-10-23T14:28:05.974Z,22.50
2022-10-23T14:30:52.297Z,22.40
2022-10-23T14:33:21.041Z,22.20
2022-10-23T14:35:50.534Z,22.10
2022-10-23T14:38:19.139Z,21.90
2022-10-23T14:40:49.314Z,21.80
2022-10-23T14:43:17.935Z,21.70
2022-10-23T14:45:49.137Z,21.50
2022-10-23T14:48:18.057Z,21.40
2022-10-23T14:50:55.855Z,21.40
2022-10-23T14:53:27.817Z,21.40
2022-10-23T14:56:06.209Z,21.20
2022-10-23T14:58:37.007Z,21.10
2022-10-23T15:01:06.199Z,20.90
2022-10-23T15:03:34.684Z,20.80
2022-10-23T15:06:04.251Z,20.80
2022-10-23T15:08:38.585Z,20.70
2022-10-23T15:11:09.035Z,20.60
2022-10-23T15:13:43.594Z,20.50
2022-10-23T15:16:12.010Z,20.30
2022-10-23T15:18:42.312Z,20.20
2022-10-23T15:21:11.861Z,20.10
2022-10-23T15:23:42.374Z,19.90
2022-10-23T15:26:14.470Z,19.50
2022-10-23T15:28:43.890Z,19.30
2022-10-23T15:31:38.203Z,19.10
2022-10-23T15:34:11.090Z,19.00
2022-10-23T15:36:40.817Z,18.90
2022-10-23T15:39:10.894Z,18.80
2022-10-23T15:41:41.175Z,18.70
2022-10-23T15:44:16.399Z,18.40
2022-10-23T15:46:49.076Z,18.20
2022-10-23T15:49:19.290Z,18.10
2022-10-23T15:51:53.400Z,18.00
2022-10-23T15:54:22.560Z,17.90
2022-10-23T15:56:53.481Z,17.80
2022-10-23T15:59:25.519Z,17.70
2022-10-23T16:01:55.765Z,17.60
2022-10-23T16:04:24.807Z,17.40
2022-10-23T16:06:55.124Z,17.30
2022-10-23T16:09:25.066Z,17.20
2022-10-23T16:11:54.592Z,17.00
2022-10-23T16:14:25.401Z,16.90
2022-10-23T16:16:53.996Z,16.80
2022-10-23T16:19:24.415Z,16.70
2022-10-23T16:21:53.631Z,16.60
2022-10-23T16:24:22.977Z,16.40
2022-10-23T16:26:53.431Z,16.30
2022-10-23T16:29:27.487Z,16.20
2022-10-23T16:31:59.796Z,16.00
2022-10-23T16:34:37.015Z,15.90
2022-10-23T16:37:11.270Z,15.70
2022-10-23T16:39:50.386Z,15.60
2022-10-23T16:42:47.059Z,15.50
2022-10-23T16:45:28.575Z,15.60
2022-10-23T16:48:06.735Z,15.60
2022-10-23T16:53:17.192Z,15.60
2022-10-23T16:55:57.264Z,15.70
2022-10-23T16:58:30.442Z,15.70
2022-10-23T17:01:13.698Z,15.70
2022-10-23T17:03:54.282Z,15.80
2022-10-23T17:06:47.234Z,15.80
2022-10-23T17:09:23.202Z,15.80
2022-10-23T17:12:00.139Z,15.70
2022-10-23T17:14:41.098Z,15.70
2022-10-23T17:17:15.053Z,15.60
2022-10-23T17:19:49.450Z,15.60
2022-10-23T17:22:28.399Z,15.70
2022-10-23T17:25:06.850Z,15.80
2022-10-23T17:27:41.913Z,15.80
2022-10-23T17:30:39.570Z,15.80
2022-10-23T17:33:41.901Z,15.80
2022-10-23T17:36:24.573Z,15.90
2022-10-23T17:39:04.062Z,15.80
2022-10-23T17:41:56.184Z,15.80
2022-10-23T17:44:28.890Z,15.80
2022-10-23T17:47:02.565Z,15.80
2022-10-23T17:49:38.702Z,15.70
2022-10-23T17:52:33.277Z,15.60
2022-10-23T17:55:23.723Z,15.50
2022-10-23T17:57:52.164Z,15.30
2022-10-23T18:00:41.362Z,15.20
2022-10-23T18:03:26.125Z,15.20
2022-10-23T18:06:49.129Z,15.10
2022-10-23T18:09:28.996Z,14.90
2022-10-23T18:15:14.454Z,14.50
2022-10-23T18:18:15.782Z,14.50
2022-10-23T18:24:26.755Z,14.30
2022-10-23T18:27:03.860Z,14.30
2022-10-23T18:29:57.011Z,14.30
2022-10-23T18:32:34.897Z,14.40
2022-10-23T18:35:09.545Z,14.40
2022-10-23T18:38:02.058Z,14.50
2022-10-23T18:40:42.448Z,14.50
2022-10-23T18:43:15.225Z,14.50
2022-10-23T18:46:12.814Z,14.50
2022-10-23T18:49:01.595Z,14.60
2022-10-23T18:51:49.076Z,14.60
2022-10-23T18:54:34.130Z,14.70
2022-10-23T18:57:16.347Z,14.80
2022-10-23T19:00:12.940Z,14.70
2022-10-23T19:02:54.015Z,14.60
2022-10-23T19:06:08.381Z,14.60
2022-10-23T19:09:15.276Z,14.50
2022-10-23T19:12:02.871Z,14.50
2022-10-23T19:14:33.043Z,14.60
2022-10-23T19:17:41.838Z,14.70
2022-10-23T19:20:21.167Z,14.70
2022-10-23T19:23:00.843Z,14.60
2022-10-23T19:25:50.815Z,14.60
2022-10-23T19:28:23.634Z,14.60
2022-10-23T19:31:17.707Z,14.70
2022-10-23T19:34:27.123Z,14.80
2022-10-23T19:37:32.453Z,14.80
2022-10-23T19:40:16.201Z,14.90
2022-10-23T19:42:48.474Z,14.90
2022-10-23T19:45:37.994Z,14.90
2022-10-23T19:48:12.838Z,14.90
2022-10-23T19:50:49.426Z,14.90
2022-10-23T19:53:27.107Z,15.00
2022-10-23T19:56:17.799Z,14.90
2022-10-23T20:05:13.851Z,15.30
2022-10-23T20:07:51.810Z,15.30
2022-10-23T20:10:31.367Z,15.50
2022-10-23T20:13:18.901Z,15.90
2022-10-23T20:16:06.234Z,16.40
2022-10-23T20:19:00.167Z,16.70
2022-10-23T20:21:46.234Z,16.90
2022-10-23T20:24:24.795Z,17.00
2022-10-23T20:27:19.345Z,17.00
2022-10-23T20:29:49.867Z,17.10
2022-10-23T20:32:25.407Z,17.20
2022-10-23T20:35:20.632Z,17.30
2022-10-23T20:37:58.642Z,17.40
2022-10-23T20:40:30.879Z,17.50
2022-10-23T20:43:15.483Z,17.50
2022-10-23T20:45:46.990Z,17.50
2022-10-23T20:48:16.500Z,17.50
2022-10-23T20:50:47.014Z,17.50
2022-10-23T20:53:37.400Z,17.50
2022-10-23T20:56:15.697Z,17.50
2022-10-23T20:58:49.646Z,17.40
2022-10-23T21:01:26.797Z,17.30
2022-10-23T21:04:00.527Z,17.30
2022-10-23T21:06:46.246Z,17.30
2022-10-23T21:09:32.032Z,17.20
2022-10-23T21:12:12.586Z,17.20
2022-10-23T21:14:53.558Z,17.10
2022-10-23T21:17:22.598Z,17.10
2022-10-23T21:20:12.013Z,17.00
2022-10-23T21:22:47.447Z,17.00
2022-10-23T21:25:16.223Z,17.00
2022-10-23T21:27:48.976Z,17.00
2022-10-23T21:30:20.434Z,17.00
2022-10-23T21:32:50.903Z,16.90
2022-10-23T21:35:30.271Z,16.90
2022-10-23T21:37:58.801Z,17.00
2022-10-23T21:43:50.869Z,17.10
2022-10-23T21:46:42.493Z,17.10
2022-10-23T21:49:37.743Z,17.20
2022-10-23T21:52:46.131Z,17.20
2022-10-23T21:55:52.378Z,17.10
2022-10-23T21:58:36.877Z,17.10
2022-10-23T22:01:18.389Z,17.10
2022-10-23T22:03:50.332Z,17.00
2022-10-23T22:06:27.960Z,17.00
2022-10-23T22:08:59.888Z,17.00
2022-10-23T22:11:29.470Z,16.90
2022-10-23T22:13:59.446Z,16.90
2022-10-23T22:16:28.872Z,16.90
2022-10-23T22:19:20.476Z,16.90
2022-10-23T22:22:10.156Z,16.80
2022-10-23T22:24:44.936Z,16.80
2022-10-23T22:27:54.048Z,16.90
2022-10-23T22:30:26.926Z,16.80
2022-10-23T22:33:06.540Z,16.80
2022-10-23T22:35:37.856Z,16.80
2022-10-23T22:38:05.876Z,16.70
2022-10-23T22:40:41.882Z,16.70
2022-10-23T22:43:10.805Z,16.70
2022-10-23T22:45:38.812Z,16.60
2022-10-23T22:48:09.700Z,16.60
2022-10-23T22:50:39.153Z,16.60
2022-10-23T22:53:08.053Z,16.50
2022-10-23T22:55:57.384Z,16.50
2022-10-23T22:58:35.682Z,16.40
2022-10-23T23:01:31.035Z,16.30
2022-10-23T23:04:38.320Z,16.30
2022-10-23T23:07:25.908Z,16.20
2022-10-23T23:10:14.989Z,16.10
2022-10-23T23:12:47.055Z,16.00
2022-10-23T23:15:30.477Z,16.00
2022-10-23T23:18:33.825Z,15.90
2022-10-23T23:21:41.819Z,15.90
2022-10-23T23:24:13.235Z,15.80
2022-10-23T23:26:45.335Z,15.80
2022-10-23T23:29:19.503Z,15.70
2022-10-23T23:31:46.620Z,15.30
2022-10-23T23:34:14.489Z,14.90
2022-10-23T23:36:41.366Z,14.60
2022-10-23T23:39:10.255Z,14.30
2022-10-23T23:41:38.805Z,14.10
2022-10-23T23:44:09.991Z,13.90
2022-10-23T23:46:37.427Z,13.90
2022-10-23T23:49:05.396Z,13.80
2022-10-23T23:51:33.176Z,13.80
2022-10-23T23:54:02.112Z,13.70
2022-10-23T23:56:30.293Z,13.70
2022-10-23T23:58:58.764Z,13.60
